Time;durP1;ratioP1;P1;durP2;ratioP2;P2;SDS_P1;SDS_P2;PMS_P1;PMS_P2;Temp;Humidity;BMP_temperature;BMP_pressure;BME280_temperature;BME280_humidity;BME280_pressure;Samples;Min_cycle;Max_cycle;Signal;HPM_P1;HPM_P2
2024/01/07 00:01:28;;;;;;;10.27;5.40;;;;;;;-145.69;60.44;52303.78;5093018;28;20198;-81
2024/01/07 00:03:54;;;;;;;9.70;5.00;;;;;;;-145.69;60.56;52301.81;5093132;28;20194;-81
2024/01/07 00:06:21;;;;;;;7.30;4.57;;;;;;;-145.69;60.59;52353.28;5092922;28;20280;-81
2024/01/07 00:08:48;;;;;;;9.60;5.20;;;;;;;-145.69;60.51;52349.31;5092286;28;20230;-80
2024/01/07 00:11:15;;;;;;;8.93;5.03;;;;;;;-145.69;60.30;52285.97;5092965;28;20649;-80
2024/01/07 00:13:43;;;;;;;6.63;4.70;;;;;;;-145.69;60.66;52341.41;5092637;28;20201;-81
2024/01/07 00:16:09;;;;;;;9.13;4.90;;;;;;;-145.69;60.92;52315.66;5092763;28;20202;-81
2024/01/07 00:18:36;;;;;;;6.10;4.20;;;;;;;-145.69;60.98;52349.31;5092616;28;20213;-81
2024/01/07 00:21:02;;;;;;;8.20;4.53;;;;;;;-145.69;60.89;52351.31;5093053;28;20202;-81
2024/01/07 00:23:28;;;;;;;8.30;4.63;;;;;;;-145.69;61.05;52315.66;5092631;28;20258;-81
2024/01/07 00:25:55;;;;;;;7.40;4.70;;;;;;;-145.69;60.69;52313.69;5093039;28;20205;-82
2024/01/07 00:28:22;;;;;;;9.17;4.87;;;;;;;-145.69;60.74;52341.41;5096607;28;20320;-82
2024/01/07 00:30:50;;;;;;;6.97;4.37;;;;;;;-145.69;60.53;52323.59;5097185;28;20294;-81
2024/01/07 00:33:16;;;;;;;6.97;4.47;;;;;;;-145.69;60.63;52321.59;5096869;28;20206;-82
2024/01/07 00:35:43;;;;;;;9.23;5.17;;;;;;;-145.69;60.66;52305.75;5096935;28;20206;-81
2024/01/07 00:38:09;;;;;;;8.87;5.00;;;;;;;-145.69;60.31;52341.41;5096861;28;20200;-80
2024/01/07 00:40:35;;;;;;;7.90;4.87;;;;;;;-145.69;60.45;52329.53;5096847;28;20256;-81
2024/01/07 00:43:02;;;;;;;7.23;4.97;;;;;;;-145.69;60.46;52309.72;5105754;28;20185;-80
2024/01/07 00:45:28;;;;;;;6.63;4.50;;;;;;;-145.69;60.36;52313.69;5117102;27;20197;-81
2024/01/07 00:47:56;;;;;;;7.43;4.57;;;;;;;-145.69;60.35;52335.47;5116717;28;20274;-80
2024/01/07 00:50:23;;;;;;;8.27;4.40;;;;;;;-145.69;60.59;52319.63;5116838;28;20198;-81
2024/01/07 00:52:49;;;;;;;7.30;4.37;;;;;;;-145.69;60.86;52353.28;5116863;28;20543;-81
2024/01/07 00:55:16;;;;;;;7.30;4.63;;;;;;;-145.69;60.92;52353.28;5117041;28;20590;-80
2024/01/07 00:57:42;;;;;;;7.93;4.20;;;;;;;-145.69;60.62;52333.47;5113819;28;20198;-81
2024/01/07 01:00:09;;;;;;;6.70;4.00;;;;;;;-145.69;60.84;52341.41;5096004;28;20253;-81
2024/01/07 01:02:38;;;;;;;7.33;4.27;;;;;;;-145.69;60.46;52369.13;5096280;28;20206;-81
2024/01/07 01:05:06;;;;;;;6.93;4.10;;;;;;;-145.69;60.46;52329.53;5095807;28;20677;-81
2024/01/07 01:07:33;;;;;;;6.70;3.77;;;;;;;-145.69;60.70;52333.47;5096088;28;20233;-81
2024/01/07 01:09:59;;;;;;;7.50;4.73;;;;;;;-145.69;61.34;52321.59;5095884;28;20217;-81
2024/01/07 01:12:26;;;;;;;7.10;4.60;;;;;;;-145.69;60.72;52325.56;5095986;28;20202;-81
2024/01/07 01:14:52;;;;;;;6.23;4.57;;;;;;;-145.69;61.19;52341.41;5095850;28;20198;-80
2024/01/07 01:17:19;;;;;;;8.00;3.83;;;;;;;-145.69;60.75;52331.50;5095974;28;20209;-81
2024/01/07 01:19:45;;;;;;;7.80;4.10;;;;;;;-145.69;60.76;52347.34;5095696;28;20288;-80
2024/01/07 01:22:13;;;;;;;9.07;4.23;;;;;;;-145.69;60.72;52327.53;5095957;28;20698;-81
2024/01/07 01:24:45;;;;;;;8.77;4.47;;;;;;;-145.69;60.56;52321.59;5096039;28;20285;-81
2024/01/07 01:27:13;;;;;;;8.63;4.50;;;;;;;-145.69;60.01;52351.31;5095797;28;20582;-82
2024/01/07 01:29:39;;;;;;;8.97;4.97;;;;;;;-145.69;60.33;52315.66;5095599;28;20660;-81
2024/01/07 01:32:09;;;;;;;7.80;4.27;;;;;;;-145.69;60.41;52345.38;5095497;28;20648;-80
2024/01/07 01:34:36;;;;;;;7.37;3.87;;;;;;;-145.69;60.81;52319.63;5096255;28;20198;-80
2024/01/07 01:37:05;;;;;;;7.90;4.33;;;;;;;-145.69;60.58;52351.31;5095393;28;20205;-80
2024/01/07 01:39:33;;;;;;;7.13;4.30;;;;;;;-145.69;60.77;52321.59;5095067;28;20255;-81
2024/01/07 01:42:02;;;;;;;7.57;4.70;;;;;;;-145.69;61.11;52325.56;5094939;28;20194;-82
2024/01/07 01:44:32;;;;;;;8.40;4.77;;;;;;;-145.69;60.94;52373.09;5090483;28;20260;-81
2024/01/07 01:47:02;;;;;;;7.73;4.83;;;;;;;-145.69;61.14;52327.53;5094763;28;20214;-81
2024/01/07 01:49:31;;;;;;;13.17;5.03;;;;;;;-145.69;60.61;52341.41;5095016;28;20287;-82
2024/01/07 01:52:01;;;;;;;8.33;4.60;;;;;;;-145.69;61.14;52309.72;5094860;28;20695;-82
2024/01/07 01:54:27;;;;;;;7.77;4.60;;;;;;;-145.69;60.75;52339.44;5094826;28;20202;-81
2024/01/07 01:56:58;;;;;;;9.13;4.90;;;;;;;-145.69;60.79;52351.31;5095384;28;20202;-82
2024/01/07 01:59:28;;;;;;;7.50;4.50;;;;;;;-145.69;60.44;52321.59;5095059;28;20639;-82
2024/01/07 02:01:55;;;;;;;7.67;4.23;;;;;;;-145.69;61.28;52337.44;5094794;28;20603;-81
2024/01/07 02:04:22;;;;;;;7.57;4.83;;;;;;;-145.69;60.94;52297.84;5095034;28;20198;-81
2024/01/07 02:06:48;;;;;;;9.00;5.83;;;;;;;-145.69;60.83;52315.66;5095094;28;20680;-81
2024/01/07 02:09:15;;;;;;;7.83;5.07;;;;;;;-145.69;60.89;52383.00;5093897;28;20222;-81
2024/01/07 02:11:41;;;;;;;9.53;4.90;;;;;;;-145.69;61.30;52353.28;5097332;28;20297;-81
2024/01/07 02:14:08;;;;;;;7.63;4.87;;;;;;;-145.69;60.94;52317.66;5095490;28;20232;-81
2024/01/07 02:16:34;;;;;;;12.73;5.27;;;;;;;-145.69;61.35;52335.47;5094902;28;20292;-81
2024/01/07 02:19:02;;;;;;;10.47;5.40;;;;;;;-145.69;61.64;52315.66;5078685;28;20687;-81
2024/01/07 02:21:29;;;;;;;9.03;5.43;;;;;;;-145.69;60.90;52311.69;5074586;28;20202;-81
2024/01/07 02:23:57;;;;;;;9.53;5.37;;;;;;;-145.69;61.11;52291.91;5091132;28;20530;-81
2024/01/07 02:26:26;;;;;;;11.77;5.93;;;;;;;-145.69;60.84;52327.53;5094929;28;20567;-80
2024/01/07 02:28:53;;;;;;;10.20;5.60;;;;;;;-145.69;60.96;52349.31;5094098;28;20249;-80
2024/01/07 02:31:19;;;;;;;9.47;5.53;;;;;;;-145.69;61.03;52365.16;5094668;28;20263;-81
2024/01/07 02:33:46;;;;;;;8.87;5.17;;;;;;;-145.69;61.59;52349.31;5093756;28;20585;-81
2024/01/07 02:36:15;;;;;;;10.70;5.60;;;;;;;-145.69;61.49;52345.38;5094188;28;20293;-81
2024/01/07 02:38:42;;;;;;;10.30;5.83;;;;;;;-145.69;61.19;52347.34;5094366;28;20206;-81
2024/01/07 02:41:11;;;;;;;9.97;5.20;;;;;;;-145.69;61.67;52299.81;5094524;28;20206;-82
2024/01/07 02:43:39;;;;;;;11.60;5.10;;;;;;;-145.69;61.64;52285.97;5094414;28;20209;-81
2024/01/07 02:46:07;;;;;;;8.93;5.17;;;;;;;-145.69;61.14;52369.13;5094406;28;20229;-82
2024/01/07 02:48:34;;;;;;;9.23;5.47;;;;;;;-145.69;61.23;52333.47;5093708;28;20708;-82
2024/01/07 02:51:03;;;;;;;10.00;5.43;;;;;;;-145.69;60.99;52369.13;5093373;28;20209;-82
2024/01/07 02:53:29;;;;;;;8.80;5.03;;;;;;;-145.69;61.47;52333.47;5093945;28;20198;-81
2024/01/07 02:55:56;;;;;;;8.20;4.50;;;;;;;-145.69;61.29;52309.72;5094331;28;20203;-81
2024/01/07 02:58:22;;;;;;;8.53;4.53;;;;;;;-145.69;61.52;52325.56;5093546;28;20660;-81
2024/01/07 03:00:50;;;;;;;9.33;5.20;;;;;;;-145.69;61.56;52343.38;5093926;28;20233;-81
2024/01/07 03:03:17;;;;;;;8.27;4.20;;;;;;;-145.69;61.24;52345.38;5093752;28;20206;-81
2024/01/07 03:05:43;;;;;;;7.83;4.50;;;;;;;-145.69;61.89;52323.59;5093627;28;20595;-80
2024/01/07 03:08:10;;;;;;;5.63;3.70;;;;;;;-145.69;61.94;52337.44;5093631;28;20221;-81
2024/01/07 03:10:36;;;;;;;5.07;3.30;;;;;;;-145.69;62.19;52325.56;5093917;28;20202;-81
2024/01/07 03:13:03;;;;;;;5.57;3.07;;;;;;;-145.69;61.84;52321.59;5093684;28;20190;-80
2024/01/07 03:15:30;;;;;;;4.70;3.00;;;;;;;-145.69;61.75;52321.59;5093387;28;20202;-81
2024/01/07 03:18:00;;;;;;;5.47;3.57;;;;;;;-145.69;61.83;52309.72;5093677;28;20198;-81
2024/01/07 03:20:27;;;;;;;5.37;3.20;;;;;;;-145.69;61.68;52345.38;5093880;28;20194;-81
2024/01/07 03:22:53;;;;;;;5.03;2.90;;;;;;;-145.69;62.10;52325.56;5093417;28;20598;-81
2024/01/07 03:25:19;;;;;;;5.77;3.23;;;;;;;-145.69;62.34;52325.56;5093691;28;20194;-80
2024/01/07 03:27:46;;;;;;;4.97;3.50;;;;;;;-145.69;62.25;52353.28;5093368;28;20209;-81
2024/01/07 03:30:12;;;;;;;6.30;3.83;;;;;;;-145.69;62.43;52337.44;5093542;28;20330;-81
2024/01/07 03:32:39;;;;;;;7.53;4.53;;;;;;;-145.69;62.00;52345.38;5093172;28;20202;-81
2024/01/07 03:35:08;;;;;;;6.50;3.70;;;;;;;-145.69;62.12;52347.34;5093534;28;20553;-81
2024/01/07 03:37:35;;;;;;;7.40;4.03;;;;;;;-145.69;62.27;52351.31;5093569;28;20209;-81
2024/01/07 03:40:01;;;;;;;7.57;4.07;;;;;;;-145.69;62.14;52299.81;5093430;28;20651;-81
2024/01/07 03:42:28;;;;;;;7.93;3.97;;;;;;;-145.69;62.02;52337.44;5103622;28;20194;-81
2024/01/07 03:44:54;;;;;;;6.73;4.30;;;;;;;-145.69;62.12;52349.31;5102516;28;20210;-81
2024/01/07 03:47:21;;;;;;;5.50;3.43;;;;;;;-145.69;62.23;52341.41;5073029;28;20553;-81
2024/01/07 03:49:47;;;;;;;5.50;3.70;;;;;;;-145.69;62.80;52305.75;5072963;28;20265;-81
2024/01/07 03:52:15;;;;;;;8.30;4.50;;;;;;;-145.69;63.15;52341.41;5072748;28;20198;-81
2024/01/07 03:54:42;;;;;;;10.33;4.70;;;;;;;-145.69;63.39;52341.41;5073349;28;20656;-81
2024/01/07 03:57:08;;;;;;;8.60;4.53;;;;;;;-145.69;62.83;52343.38;5072942;28;20198;-81
2024/01/07 03:59:35;;;;;;;8.67;5.27;;;;;;;-145.69;63.51;52325.56;5090466;28;20234;-80
2024/01/07 04:02:02;;;;;;;9.63;5.27;;;;;;;-145.69;63.61;52317.66;5092439;28;20201;-81
2024/01/07 04:04:28;;;;;;;12.33;5.33;;;;;;;-145.69;63.19;52321.59;5092997;28;20194;-81
2024/01/07 04:06:55;;;;;;;6.60;3.77;;;;;;;-145.69;62.96;52353.28;5093166;28;20205;-81
2024/01/07 04:09:23;;;;;;;12.00;5.30;;;;;;;-145.69;64.16;52333.47;5092630;28;20316;-81
2024/01/07 04:11:49;;;;;;;9.23;5.00;;;;;;;-145.69;63.92;52369.13;5092802;28;20193;-81
2024/01/07 04:14:16;;;;;;;10.47;4.70;;;;;;;-145.69;63.73;52347.34;5093063;28;20190;-80
2024/01/07 04:16:43;;;;;;;8.80;5.03;;;;;;;-145.69;64.30;52317.66;5092679;28;20198;-80
2024/01/07 04:19:09;;;;;;;8.87;5.37;;;;;;;-145.69;64.74;52341.41;5092893;28;20206;-80
2024/01/07 04:21:36;;;;;;;9.17;5.40;;;;;;;-145.69;64.74;52341.41;5092951;28;20206;-80
2024/01/07 04:24:03;;;;;;;11.27;5.87;;;;;;;-145.69;65.06;52341.41;5093022;28;20197;-80
2024/01/07 04:26:31;;;;;;;15.67;5.77;;;;;;;-145.69;65.01;52323.59;5092560;28;20208;-80
2024/01/07 04:28:57;;;;;;;10.30;5.80;;;;;;;-145.69;64.85;52349.31;5092401;28;20711;-80
2024/01/07 04:31:24;;;;;;;10.90;5.93;;;;;;;-145.69;64.72;52335.47;5093001;28;20210;-81
2024/01/07 04:33:50;;;;;;;13.77;5.67;;;;;;;-145.69;64.73;52333.47;5092874;28;20190;-81
2024/01/07 04:36:17;;;;;;;16.13;6.97;;;;;;;-145.69;64.28;52329.53;5092161;28;20678;-81
2024/01/07 04:38:43;;;;;;;8.83;4.87;;;;;;;-145.69;64.46;52355.28;5092672;28;20230;-80
2024/01/07 04:41:10;;;;;;;8.63;4.80;;;;;;;-145.69;64.65;52319.63;5092545;28;20198;-81
2024/01/07 04:43:37;;;;;;;10.17;5.43;;;;;;;-145.69;64.02;52349.31;5092567;28;20202;-81
2024/01/07 04:46:04;;;;;;;8.10;4.80;;;;;;;-145.69;64.24;52317.66;5091731;28;20186;-81
2024/01/07 04:48:31;;;;;;;8.83;4.70;;;;;;;-145.69;64.12;52345.38;5092345;28;20214;-81
2024/01/07 04:50:57;;;;;;;8.83;4.93;;;;;;;-145.69;64.09;52371.13;5092528;28;20293;-81
2024/01/07 04:53:24;;;;;;;9.10;5.07;;;;;;;-145.69;63.71;52361.22;5092488;28;20198;-81
2024/01/07 04:55:50;;;;;;;12.40;5.60;;;;;;;-145.69;64.41;52313.69;5092653;28;20560;-80
2024/01/07 04:58:17;;;;;;;9.23;5.60;;;;;;;-145.69;64.27;52365.16;5092191;28;20226;-80
2024/01/07 05:00:44;;;;;;;10.43;5.67;;;;;;;-145.69;63.99;52309.72;5092478;28;20685;-80
2024/01/07 05:03:11;;;;;;;10.30;5.60;;;;;;;-145.69;63.75;52323.59;5072328;28;20202;-82
2024/01/07 05:05:38;;;;;;;10.47;5.33;;;;;;;-145.69;63.71;52371.13;5072403;28;20222;-81
2024/01/07 05:08:05;;;;;;;8.27;4.50;;;;;;;-145.69;63.69;52345.38;5071836;28;20195;-81
2024/01/07 05:10:31;;;;;;;11.07;4.70;;;;;;;-145.69;63.40;52357.25;5071790;28;20799;-81
2024/01/07 05:12:58;;;;;;;10.90;5.27;;;;;;;-145.69;63.37;52361.22;5072576;28;20207;-81
2024/01/07 05:15:24;;;;;;;12.83;5.33;;;;;;;-145.69;63.22;52341.41;5076001;28;20205;-81
2024/01/07 05:17:52;;;;;;;10.27;4.13;;;;;;;-145.69;63.23;52353.28;5075778;28;20206;-81
2024/01/07 05:20:19;;;;;;;6.33;4.50;;;;;;;-145.69;63.46;52337.44;5092484;28;20644;-82
2024/01/07 05:22:46;;;;;;;8.50;4.50;;;;;;;-145.69;63.48;52331.50;5096170;28;20202;-81
2024/01/07 05:25:12;;;;;;;8.17;4.50;;;;;;;-145.69;63.34;52355.28;5095824;28;20198;-81
2024/01/07 05:27:39;;;;;;;9.97;5.07;;;;;;;-145.69;63.16;52341.41;5095294;28;20202;-81
2024/01/07 05:30:07;;;;;;;8.90;4.13;;;;;;;-145.69;63.17;52361.22;5095392;28;20233;-81
2024/01/07 05:32:34;;;;;;;7.53;4.20;;;;;;;-145.69;62.95;52345.38;5095590;28;20198;-81
2024/01/07 05:35:02;;;;;;;7.73;4.60;;;;;;;-145.69;63.91;52353.28;5095746;28;20252;-81
2024/01/07 05:37:29;;;;;;;11.57;5.37;;;;;;;-145.69;63.75;52341.41;5095536;28;20206;-81
2024/01/07 05:39:55;;;;;;;12.30;6.53;;;;;;;-145.69;63.93;52321.59;5095747;28;20579;-80
2024/01/07 05:42:22;;;;;;;15.10;7.35;;;;;;;-145.69;64.58;52341.41;5094507;28;20482;-80
2024/01/07 05:44:48;;;;;;;12.93;6.17;;;;;;;-145.69;63.91;52305.75;5095514;28;20198;-81
2024/01/07 05:47:15;;;;;;;11.37;5.83;;;;;;;-145.69;63.56;52363.19;5095110;28;20209;-81
2024/01/07 05:49:41;;;;;;;13.87;6.23;;;;;;;-145.69;63.17;52313.69;5095317;28;20619;-81
2024/01/07 05:52:09;;;;;;;10.93;6.07;;;;;;;-145.69;63.04;52341.41;5077486;28;20207;-81
2024/01/07 05:54:35;;;;;;;11.77;5.93;;;;;;;-145.69;63.35;52329.53;5074810;28;20206;-81
2024/01/07 05:57:02;;;;;;;12.70;6.13;;;;;;;-145.69;63.26;52345.38;5075205;28;20202;-80
2024/01/07 05:59:28;;;;;;;12.67;6.40;;;;;;;-145.69;63.02;52351.31;5088402;28;20584;-81
2024/01/07 06:01:59;;;;;;;11.07;6.17;;;;;;;-145.69;63.09;52325.56;5094612;28;20204;-81
2024/01/07 06:04:25;;;;;;;10.90;6.30;;;;;;;-145.69;63.76;52361.22;5095017;28;20649;-80
2024/01/07 06:06:52;;;;;;;11.87;5.90;;;;;;;-145.69;63.36;52363.19;5095131;28;20248;-81
2024/01/07 06:09:20;;;;;;;11.70;6.13;;;;;;;-145.69;63.49;52345.38;5094991;28;20225;-81
2024/01/07 06:11:46;;;;;;;9.00;5.60;;;;;;;-145.69;63.49;52349.31;5094801;28;20198;-81
2024/01/07 06:14:13;;;;;;;9.97;5.63;;;;;;;-145.69;63.57;52325.56;5095114;28;20199;-80
2024/01/07 06:16:39;;;;;;;9.03;5.40;;;;;;;-145.69;63.45;52343.38;5095094;28;20202;-81
2024/01/07 06:19:06;;;;;;;11.03;5.67;;;;;;;-145.69;64.02;52333.47;5094632;28;20665;-81
2024/01/07 06:21:32;;;;;;;8.87;4.90;;;;;;;-145.69;63.49;52335.47;5095082;28;20280;-80
2024/01/07 06:23:59;;;;;;;14.10;6.30;;;;;;;-145.69;63.81;52355.28;5094520;28;20202;-81
2024/01/07 06:26:27;;;;;;;10.30;5.93;;;;;;;-145.69;64.13;52329.53;5094579;28;20194;-79
2024/01/07 06:28:53;;;;;;;11.93;5.70;;;;;;;-145.69;64.16;52341.41;5094419;28;20190;-80
2024/01/07 06:31:19;;;;;;;12.57;6.23;;;;;;;-145.69;63.99;52353.28;5094402;28;20210;-81
2024/01/07 06:33:46;;;;;;;9.53;5.10;;;;;;;-145.69;63.80;52349.31;5094687;28;20205;-79
2024/01/07 06:36:12;;;;;;;8.87;4.87;;;;;;;-145.69;64.34;52384.97;5094398;28;20575;-82
2024/01/07 06:38:39;;;;;;;7.70;4.80;;;;;;;-145.69;63.71;52333.47;5094235;28;20202;-80
2024/01/07 06:41:05;;;;;;;5.27;3.90;;;;;;;-145.69;63.81;52337.44;5094366;28;20194;-82
2024/01/07 06:43:33;;;;;;;6.33;4.17;;;;;;;-145.69;63.70;52361.22;5094403;28;20204;-81
2024/01/07 06:46:00;;;;;;;9.80;4.40;;;;;;;-145.69;64.24;52313.69;5094159;28;20206;-81
2024/01/07 06:48:26;;;;;;;7.70;4.23;;;;;;;-145.69;63.96;52353.28;5094196;28;20202;-82
2024/01/07 06:50:53;;;;;;;6.10;4.17;;;;;;;-145.69;64.19;52361.22;5094147;28;20738;-81
2024/01/07 06:53:19;;;;;;;7.07;4.13;;;;;;;-145.69;64.04;52327.53;5093976;28;20198;-82
2024/01/07 06:55:46;;;;;;;5.37;3.73;;;;;;;-145.69;63.96;52317.66;5093595;28;20198;-80
2024/01/07 06:58:12;;;;;;;6.07;4.03;;;;;;;-145.69;64.29;52359.22;5093893;28;20201;-81
2024/01/07 07:00:40;;;;;;;6.70;4.07;;;;;;;-145.69;64.19;52373.09;5093910;28;20284;-81
2024/01/07 07:03:06;;;;;;;6.63;4.13;;;;;;;-145.69;64.29;52365.16;5093814;28;20198;-81
2024/01/07 07:05:33;;;;;;;7.10;4.47;;;;;;;-145.69;64.19;52361.22;5093569;28;20206;-81
2024/01/07 07:07:59;;;;;;;5.93;3.83;;;;;;;-145.69;64.16;52365.16;5093869;28;20198;-81
2024/01/07 07:10:26;;;;;;;6.50;4.33;;;;;;;-145.69;64.09;52325.56;5093833;28;20279;-81
2024/01/07 07:12:52;;;;;;;6.03;3.80;;;;;;;-145.69;64.49;52345.38;5093426;28;20202;-81
2024/01/07 07:15:19;;;;;;;7.47;4.40;;;;;;;-145.69;64.91;52329.53;5093656;28;20204;-80
2024/01/07 07:17:47;;;;;;;7.60;3.93;;;;;;;-145.69;64.27;52353.28;5093932;28;20267;-80
2024/01/07 07:20:12;;;;;;;8.17;4.63;;;;;;;-145.69;64.09;52363.19;5093811;28;20201;-81
2024/01/07 07:22:39;;;;;;;5.53;3.67;;;;;;;-145.69;64.20;52345.38;5093592;28;20255;-80
2024/01/07 07:25:06;;;;;;;6.13;4.17;;;;;;;-145.69;64.64;52329.53;5093473;28;20195;-81
2024/01/07 07:27:33;;;;;;;6.33;3.87;;;;;;;-145.69;64.10;52357.25;5093569;28;20202;-80
2024/01/07 07:29:59;;;;;;;5.53;4.10;;;;;;;-145.69;64.68;52365.16;5092860;28;20222;-80
2024/01/07 07:32:25;;;;;;;6.60;4.30;;;;;;;-145.69;64.59;52384.97;5093245;28;20190;-81
2024/01/07 07:34:53;;;;;;;8.17;4.57;;;;;;;-145.69;64.66;52384.97;5093639;28;20202;-81
2024/01/07 07:37:20;;;;;;;5.93;4.00;;;;;;;-145.69;63.90;52349.31;5092682;28;20649;-81
2024/01/07 07:39:46;;;;;;;6.20;4.30;;;;;;;-145.69;64.56;52333.47;5093142;28;20195;-80
2024/01/07 07:42:13;;;;;;;6.93;4.37;;;;;;;-145.69;63.99;52337.44;5093123;28;20201;-81
2024/01/07 07:44:41;;;;;;;7.93;4.63;;;;;;;-145.69;64.30;52335.47;5093134;28;20213;-81
2024/01/07 07:47:11;;;;;;;7.33;4.67;;;;;;;-145.69;64.14;52357.25;5093287;28;20198;-81
2024/01/07 07:49:39;;;;;;;8.03;4.70;;;;;;;-145.69;63.99;52357.25;5093278;28;20226;-80
2024/01/07 07:52:08;;;;;;;8.67;4.80;;;;;;;-145.69;64.09;52345.38;5092225;28;20192;-80
2024/01/07 07:54:38;;;;;;;10.07;5.67;;;;;;;-145.69;64.44;52337.44;5079375;28;20210;-80
2024/01/07 07:57:05;;;;;;;9.97;5.77;;;;;;;-145.69;64.44;52351.31;5072850;28;20849;-80
2024/01/07 07:59:34;;;;;;;8.80;5.77;;;;;;;-145.69;64.46;52353.28;5072408;28;20226;-81
2024/01/07 08:02:00;;;;;;;11.60;6.20;;;;;;;-145.69;63.94;52323.59;5090620;28;20190;-80
2024/01/07 08:04:27;;;;;;;9.60;5.80;;;;;;;-145.69;64.50;52353.28;5093237;28;20202;-80
2024/01/07 08:06:56;;;;;;;12.20;7.50;;;;;;;-145.69;64.16;52357.25;5092911;28;20259;-80
2024/01/07 08:09:24;;;;;;;12.30;7.17;;;;;;;-145.69;64.62;52339.44;5092727;28;20719;-81
2024/01/07 08:11:51;;;;;;;13.63;7.67;;;;;;;-145.69;64.59;52327.53;5093211;28;20201;-81
2024/01/07 08:14:20;;;;;;;13.77;8.07;;;;;;;-145.69;64.34;52345.38;5092622;28;20530;-81
2024/01/07 08:16:47;;;;;;;13.87;7.77;;;;;;;-145.69;64.67;52329.53;5092852;28;20243;-81
2024/01/07 08:19:13;;;;;;;15.23;8.63;;;;;;;-145.69;64.39;52371.13;5092994;28;20644;-80
2024/01/07 08:21:40;;;;;;;14.43;8.00;;;;;;;-145.69;64.18;52329.53;5092709;28;20613;-81
2024/01/07 08:24:07;;;;;;;17.33;7.93;;;;;;;-145.69;64.26;52353.28;5092895;28;20197;-80
2024/01/07 08:26:35;;;;;;;14.53;8.13;;;;;;;-145.69;64.30;52313.69;5092629;28;20197;-81
2024/01/07 08:29:01;;;;;;;12.27;7.30;;;;;;;-145.69;64.03;52369.13;5092834;28;20194;-80
2024/01/07 08:31:30;;;;;;;14.03;7.57;;;;;;;-145.69;64.21;52381.00;5092206;28;20225;-81
2024/01/07 08:33:56;;;;;;;17.83;7.83;;;;;;;-145.69;63.93;52333.47;5092572;28;20198;-81
2024/01/07 08:36:23;;;;;;;12.73;7.13;;;;;;;-145.69;64.16;52353.28;5092191;28;20202;-80
2024/01/07 08:38:52;;;;;;;13.13;7.60;;;;;;;-145.69;63.98;52355.28;5092493;28;20588;-80
2024/01/07 08:41:18;;;;;;;12.73;7.00;;;;;;;-145.69;63.39;52388.94;5092098;28;20280;-80
2024/01/07 08:43:46;;;;;;;13.53;7.07;;;;;;;-145.69;63.61;52333.47;5091027;28;20289;-81
2024/01/07 08:46:21;;;;;;;11.37;6.13;;;;;;;-145.69;63.55;52337.44;5092335;28;20209;-80
2024/01/07 08:48:49;;;;;;;10.20;6.27;;;;;;;-145.69;63.67;52345.38;5094082;28;20202;-82
2024/01/07 08:51:19;;;;;;;12.13;6.97;;;;;;;-145.69;64.08;52353.28;5096625;28;20296;-81
2024/01/07 08:53:47;;;;;;;11.20;6.70;;;;;;;-145.69;63.24;52349.31;5096623;28;20212;-81
2024/01/07 08:56:15;;;;;;;11.70;7.30;;;;;;;-145.69;63.54;52355.28;5096372;28;20206;-81
2024/01/07 08:58:42;;;;;;;10.30;5.30;;;;;;;-145.69;63.49;52355.28;5096260;28;20298;-81
2024/01/07 09:01:10;;;;;;;10.63;6.50;;;;;;;-145.69;63.55;52325.56;5095900;28;20194;-82
2024/01/07 09:03:36;;;;;;;9.83;6.13;;;;;;;-145.69;63.89;52313.69;5096158;28;20661;-81
2024/01/07 09:06:05;;;;;;;13.00;7.43;;;;;;;-145.69;64.04;52341.41;5096266;28;20298;-82
2024/01/07 09:08:32;;;;;;;16.67;9.07;;;;;;;-145.69;64.19;52329.53;5096095;28;20537;-81
2024/01/07 09:11:00;;;;;;;20.07;11.70;;;;;;;-145.69;64.06;52347.34;5095793;28;20420;-81
2024/01/07 09:13:26;;;;;;;20.63;10.83;;;;;;;-145.69;63.49;52363.19;5096140;28;20652;-80
2024/01/07 09:15:53;;;;;;;15.30;9.37;;;;;;;-145.69;63.88;52361.22;5096077;28;20190;-81
2024/01/07 09:18:21;;;;;;;15.20;8.93;;;;;;;-145.69;63.87;52361.22;5096080;28;20210;-80
2024/01/07 09:20:48;;;;;;;15.33;9.13;;;;;;;-145.69;63.60;52367.16;5095831;28;20202;-81
2024/01/07 09:23:15;;;;;;;14.97;8.63;;;;;;;-145.69;63.72;52321.59;5095740;28;20686;-81
2024/01/07 09:25:42;;;;;;;14.63;7.93;;;;;;;-145.69;63.49;52388.94;5096134;28;20197;-80
2024/01/07 09:28:08;;;;;;;13.60;7.83;;;;;;;-145.69;63.60;52331.50;5095603;28;20198;-80
2024/01/07 09:30:35;;;;;;;14.63;9.30;;;;;;;-145.69;63.53;52349.31;5095565;28;20218;-80
2024/01/07 09:33:06;;;;;;;14.03;8.00;;;;;;;-145.69;63.35;52341.41;5095515;28;20217;-80
2024/01/07 09:35:37;;;;;;;12.50;8.30;;;;;;;-145.69;63.31;52347.34;5095358;28;20229;-80
2024/01/07 09:38:08;;;;;;;14.23;8.07;;;;;;;-145.69;63.59;52361.22;5095663;28;20664;-81
2024/01/07 09:40:37;;;;;;;12.03;7.10;;;;;;;-145.69;63.72;52353.28;5095813;28;20197;-81
2024/01/07 09:43:04;;;;;;;14.83;7.13;;;;;;;-145.69;63.72;52333.47;5095479;28;20680;-81
2024/01/07 09:45:31;;;;;;;14.23;7.83;;;;;;;-145.69;63.79;52353.28;5094641;28;20209;-80
2024/01/07 09:47:58;;;;;;;14.47;8.20;;;;;;;-145.69;64.41;52331.50;5095559;28;20228;-81
2024/01/07 09:50:26;;;;;;;13.50;8.00;;;;;;;-145.69;63.89;52335.47;5095569;28;20317;-80
2024/01/07 09:52:58;;;;;;;14.07;8.23;;;;;;;-145.69;64.02;52359.22;5095875;28;20213;-80
2024/01/07 09:55:34;;;;;;;16.33;8.60;;;;;;;-145.69;64.31;52357.25;5078072;28;20200;-81
2024/01/07 09:58:03;;;;;;;17.27;8.43;;;;;;;-145.69;64.57;52323.59;5075067;28;20202;-81
2024/01/07 10:00:30;;;;;;;17.33;9.33;;;;;;;-145.69;64.53;52349.31;5074811;28;20566;-80
2024/01/07 10:02:57;;;;;;;16.93;8.63;;;;;;;-145.69;64.83;52327.53;5094550;28;20573;-81
2024/01/07 10:05:24;;;;;;;16.53;8.77;;;;;;;-145.69;65.02;52363.19;5095279;28;20206;-80
2024/01/07 10:07:57;;;;;;;15.23;8.37;;;;;;;-145.69;64.49;52347.34;5095478;28;20209;-81
2024/01/07 10:10:23;;;;;;;15.10;8.80;;;;;;;-145.69;64.60;52367.16;5095062;28;20221;-80
2024/01/07 10:12:52;;;;;;;15.90;9.30;;;;;;;-145.69;64.83;52384.97;5095292;28;20205;-81
2024/01/07 10:15:19;;;;;;;15.90;8.57;;;;;;;-145.69;64.79;52369.13;5094973;28;20194;-80
2024/01/07 10:17:49;;;;;;;16.23;9.60;;;;;;;-145.69;64.89;52329.53;5094550;28;20660;-81
2024/01/07 10:20:18;;;;;;;19.47;9.60;;;;;;;-145.69;65.51;52363.19;5094853;28;20198;-80
2024/01/07 10:22:50;;;;;;;21.20;10.07;;;;;;;-145.69;64.69;52361.22;5094621;28;20285;-80
2024/01/07 10:25:19;;;;;;;19.60;8.70;;;;;;;-145.69;64.82;52375.06;5094749;28;20241;-80
2024/01/07 10:27:46;;;;;;;19.30;9.60;;;;;;;-145.69;65.24;52333.47;5094631;28;20664;-81
2024/01/07 10:30:27;;;;;;;20.07;10.67;;;;;;;-145.69;64.51;52361.22;5094883;28;20209;-80
2024/01/07 10:32:57;;;;;;;19.80;9.80;;;;;;;-145.69;65.11;52339.44;5087996;28;20210;-80
2024/01/07 10:35:29;;;;;;;20.37;10.43;;;;;;;-145.69;65.26;52355.28;5089253;28;20201;-81
2024/01/07 10:37:59;;;;;;;19.17;9.27;;;;;;;-145.69;64.54;52339.44;5094275;28;20262;-80
2024/01/07 10:40:29;;;;;;;20.87;9.60;;;;;;;-145.69;64.32;52361.22;5094353;28;20206;-81
2024/01/07 10:42:56;;;;;;;23.87;10.23;;;;;;;-145.69;64.34;52329.53;5094331;28;20206;-81
2024/01/07 10:45:26;;;;;;;18.37;9.73;;;;;;;-145.69;63.76;52373.09;5093968;28;20202;-81
2024/01/07 10:47:56;;;;;;;18.60;9.40;;;;;;;-145.69;63.39;52361.22;5094269;28;20198;-81
2024/01/07 10:50:28;;;;;;;17.23;8.93;;;;;;;-145.69;63.44;52363.19;5094438;28;20268;-80
2024/01/07 10:53:04;;;;;;;17.37;8.60;;;;;;;-145.69;62.96;52369.13;5093697;28;20220;-80
2024/01/07 10:55:36;;;;;;;16.47;8.87;;;;;;;-145.69;63.31;52345.38;5093960;28;20210;-79
2024/01/07 10:58:10;;;;;;;18.77;9.30;;;;;;;-145.69;63.34;52365.16;5093736;28;20202;-80
2024/01/07 11:00:39;;;;;;;17.77;8.97;;;;;;;-145.69;63.25;52341.41;5094078;28;20201;-80
2024/01/07 11:03:11;;;;;;;20.30;9.13;;;;;;;-145.69;62.99;52357.25;5093893;28;20201;-80
2024/01/07 11:05:50;;;;;;;19.33;10.57;;;;;;;-145.69;63.34;52363.19;5092966;28;20444;-80
2024/01/07 11:08:24;;;;;;;17.67;8.57;;;;;;;-145.69;62.45;52357.25;5093841;28;20236;-80
2024/01/07 11:11:05;;;;;;;16.30;8.40;;;;;;;-145.69;62.53;52390.91;5093152;28;20230;-82
2024/01/07 11:13:37;;;;;;;16.33;7.70;;;;;;;-145.69;62.05;52349.31;5093669;28;20202;-80
2024/01/07 11:16:04;;;;;;;18.33;9.37;;;;;;;-145.69;62.64;52333.47;5093845;28;20300;-80